• Join FlightAware (Why Join?)
  • Login
  • US Flag 
01:30AM EDT


 

Airport Tracker/Info


-or-


 

Live Flight TrackerFlight Track Log ✈ GJS6221 ✈ 04-Jun-2014 ✈ KLGA - KMKE

Flight Track Log - Related Links

Times and Time Zones

All times are in EDT time to prevent confusion due to time zone crossing. See the GJS6221 flight status page for this flight to view local times or setup timezone preferences in your user account.

Time Position Orientation Groundspeed Altitude Reporting Facility
EDT Latitude Longitude Course Direction KTS MPH feet Rate Location/Type
01:17PM 40.7333 -73.8167 49° Northeast 192 221 2,000  Level New York TRACON
01:18PM 40.7667 -73.7667 49° Northeast 229 264 4,300 2,340 Climbing New York TRACON
01:19PM 40.8333 -73.7667 360° North 266 306 6,700 2,520 Climbing New York TRACON
01:20PM 40.8833 -73.8500 308° West 270 311 9,600 2,400 Climbing New York TRACON
01:21PM 40.9500 -73.9167 323° Northwest 298 343 11,800 2,100 Climbing New York TRACON
01:22PM 41.0000 -74.0167 304° West 321 369 13,900 1,860 Climbing New York TRACON
01:23PM 41.0333 -74.1333 291° West 339 390 15,600 900 Climbing New York TRACON
01:25PM 41.0717 -74.3483 283° West 388 447 16,400 1,140 Climbing New York Center
01:26PM 41.1006 -74.4983 284° West 391 450 18,700 2,040 Climbing New York Center
01:27PM 41.1269 -74.6364 284° West 388 447 20,700 1,980 Climbing New York Center
01:28PM 41.1739 -74.7703 295° West 375 432 22,900 1,740 Climbing New York Center
01:29PM 41.2236 -74.8894 299° West 370 426 24,400 1,260 Climbing New York Center
01:30PM 41.2739 -75.0100 299° West 372 428 25,600 1,020 Climbing New York Center
01:31PM 41.3275 -75.1331 300° West 382 440 26,600 960 Climbing New York Center
01:32PM 41.3814 -75.2581 300° West 389 448 27,600 960 Climbing New York Center
01:33PM 41.4356 -75.3842 300° West 390 449 28,600 1,020 Climbing New York Center
01:34PM 41.4917 -75.5397 296° West 390 449 29,800 1,020 Climbing New York Center
01:35PM 41.5328 -75.6772 292° West 387 445 30,800 960 Climbing New York Center
01:36PM 41.5683 -75.8014 291° West 383 441 31,800 900 Climbing New York Center
01:37PM 41.6050 -75.9300 291° West 377 434 32,800 780 Climbing New York Center
01:38PM 41.6406 -76.0575 291° West 373 429 33,500 720 Climbing New York Center
01:39PM 41.6844 -76.2117 291° West 373 429 34,300 720 Climbing New York Center
01:40PM 41.7208 -76.3408 291° West 374 430 35,100 720 Climbing New York Center
01:41PM 41.7506 -76.4544 289° West 373 429 35,800 720 Climbing Cleveland Center
01:42PM 41.7861 -76.5819 291° West 371 427 36,600 720 Climbing Cleveland Center
01:43PM 41.8208 -76.7050 291° West 360 414 37,400 660 Climbing Cleveland Center
01:44PM 41.8603 -76.8531 290° West 351 404 38,000 240 Climbing Cleveland Center
01:45PM 41.8944 -76.9772 290° West 353 406 38,000  Level Cleveland Center
01:46PM 41.9294 -77.1036 290° West 357 411 38,000  Level Cleveland Center
01:48PM 41.9636 -77.2286 290° West 357 411 38,000  Level Cleveland Center
01:49PM 41.9961 -77.3539 289° West 357 411 38,000  Level Cleveland Center
01:50PM 42.0297 -77.4778 290° West 356 410 38,000  Level Cleveland Center
01:51PM 42.0706 -77.6278 290° West 355 409 38,000  Level Cleveland Center
01:52PM 42.1050 -77.7539 290° West 355 409 38,000  Level Cleveland Center
01:53PM 42.1389 -77.8819 290° West 358 412 38,000  Level Cleveland Center
01:54PM 42.1731 -78.0092 290° West 360 414 38,000  Level Cleveland Center
01:55PM 42.2072 -78.1364 290° West 359 413 38,000  Level Cleveland Center
01:56PM 42.2411 -78.2658 290° West 361 415 38,000  Level Cleveland Center
01:57PM 42.2733 -78.3933 289° West 362 417 38,000  Level Cleveland Center
01:58PM 42.3122 -78.5486 289° West 362 417 38,000  Level Cleveland Center
01:59PM 42.3431 -78.6764 288° West 360 414 38,000  Level Cleveland Center
02:00PM 42.3736 -78.8033 288° West 359 413 38,000  Level Cleveland Center
02:01PM 42.4081 -78.9411 289° West 359 413 38,000  Level Cleveland Center
02:02PM 42.4389 -79.0658 289° West 356 410 38,000  Level Cleveland Center
02:03PM 42.4686 -79.1839 289° West 355 409 38,000  Level Cleveland Center
02:04PM 42.5047 -79.3389 288° West 360 414 38,000  Level Cleveland Center
02:05PM 42.5358 -79.4681 288° West 360 414 38,000  Level Cleveland Center
02:06PM 42.5675 -79.5989 288° West 363 418 38,000  Level Cleveland Center
02:07PM 42.5978 -79.7283 288° West 363 418 38,000  Level Cleveland Center
02:08PM 42.6167 -79.8597 281° West 359 413 38,000  Level Cleveland Center
02:09PM 42.6208 -79.9992 272° West 357 411 38,000  Level Cleveland Center
02:10PM 42.6272 -80.1572 273° West 357 411 38,000  Level Cleveland Center
02:11PM 42.6336 -80.2944 274° West 358 412 38,000  Level Cleveland Center
02:12PM 42.6386 -80.4314 273° West 360 414 38,000  Level Cleveland Center
02:13PM 42.6444 -80.5689 273° West 360 414 38,000  Level Cleveland Center
02:14PM 42.6494 -80.7083 273° West 365 420 38,000  Level Cleveland Center
02:15PM 42.6542 -80.8497 273° West 370 426 38,000  Level Cleveland Center
02:16PM 42.6586 -80.9894 273° West 370 426 38,000  Level Cleveland Center
02:18PM 42.6636 -81.1547 272° West 370 426 38,000  Level Cleveland Center
02:19PM 42.6717 -81.2928 275° West 370 426 38,000  Level Cleveland Center
02:20PM 42.6878 -81.4311 279° West 369 425 38,000  Level Cleveland Center
02:21PM 42.7028 -81.5703 278° West 369 425 38,000  Level Cleveland Center
02:22PM 42.7189 -81.7086 279° West 369 425 38,000  Level Cleveland Center
02:23PM 42.7347 -81.8464 279° West 369 425 38,000  Level Cleveland Center
02:24PM 42.7489 -81.9839 278° West 368 423 38,000  Level Cleveland Center
02:25PM 42.7669 -82.1483 279° West 368 423 38,000  Level Cleveland Center
02:26PM 42.7825 -82.2864 279° West 368 423 38,000  Level Cleveland Center
02:27PM 42.7969 -82.4242 278° West 369 425 38,000  Level Cleveland Center
02:28PM 42.8106 -82.5614 278° West 369 425 38,000  Level Cleveland Center
02:29PM 42.8300 -82.6972 281° West 369 425 38,000  Level Cleveland Center
02:30PM 42.8525 -82.8617 281° West 369 425 38,000  Level Cleveland Center
02:31PM 42.8706 -82.9997 280° West 369 425 38,000  Level Cleveland Center
02:32PM 42.8883 -83.1353 280° West 369 425 38,000  Level Cleveland Center
02:33PM 42.9067 -83.2725 280° West 372 428 38,000  Level Cleveland Center
02:34PM 42.9244 -83.4089 280° West 370 426 38,000  Level Cleveland Center
02:35PM 42.9458 -83.5714 280° West 369 425 38,000  Level Cleveland Center
02:36PM 42.9625 -83.7075 280° West 369 425 38,000  Level Cleveland Center
02:37PM 42.9775 -83.8419 279° West 365 420 38,000  Level Cleveland Center
02:38PM 42.9903 -83.9764 277° West 362 417 38,000  Level Cleveland Center
02:39PM 43.0025 -84.1108 277° West 361 415 38,000  Level Cleveland Center
02:40PM 43.0183 -84.2719 278° West 360 414 38,000  Level Cleveland Center
02:41PM 43.0286 -84.3892 277° West 360 414 38,000  Level Cleveland Center
02:42PM 43.0431 -84.5511 277° West 360 414 38,000  Level Cleveland Center
02:43PM 43.0561 -84.6872 278° West 360 414 38,000  Level Cleveland Center
02:44PM 43.0689 -84.8233 277° West 361 415 38,000  Level Cleveland Center
02:45PM 43.0800 -84.9594 276° West 362 417 38,000  Level Chicago Center
02:47PM 43.0928 -85.0975 277° West 363 418 38,000 -300 Level Chicago Center
02:48PM 43.1067 -85.2619 277° West 364 419 37,500 -900 Descending Chicago Center
02:49PM 43.1183 -85.3994 277° West 364 419 36,200 -1,380 Descending Chicago Center
02:50PM 43.1294 -85.5439 276° West 376 433 34,700 -1,440 Descending Chicago Center
02:51PM 43.1431 -85.6942 277° West 395 455 33,200 -1,500 Descending Chicago Center
02:52PM 43.1553 -85.8456 276° West 396 456 31,700 -2,100 Descending Chicago Center
02:53PM 43.1683 -86.0194 276° West 399 459 28,900 -2,760 Descending Chicago Center
02:54PM 43.1681 -86.1636 270° West 394 453 26,000 -2,400 Descending Chicago Center
02:55PM 43.1653 -86.3069 269° West 385 443 24,000 -1,020 Descending Chicago Center
02:56PM 43.1631 -86.4500 269° West 382 440 23,900 -1,620 Descending Chicago Center
02:57PM 43.1606 -86.6300 269° West 394 453 20,700 -2,880 Descending Chicago Center
02:58PM 43.1569 -86.7731 268° West 383 441 17,900 -2,580 Descending Chicago Center
02:59PM 43.1536 -86.9153 268° West 375 432 15,400 -1,920 Descending Chicago Center
03:00PM 43.1511 -87.0503 269° West 359 413 14,000 -900 Descending Chicago Center
03:01PM 43.1481 -87.1836 268° West 354 407 13,600 -1,140 Descending Chicago Center
03:02PM 43.1439 -87.3447 268° West 352 405 11,700 -1,740 Descending Chicago Center
03:03PM 43.1364 -87.4642 265° West 346 398 10,100 -840 Descending Chicago Center
03:04PM 43.1269 -87.5944 264° West 344 396 10,000 -180 Descending Chicago Center
03:05PM 43.1083 -87.7158 258° West 323 372 9,800 -1,260 Descending Chicago Center
03:06PM 43.0808 -87.8414 253° West 290 334 7,400 -1,380 Descending Chicago Center
03:07PM 43.0581 -87.9456 253° West 288 331 7,000 -1,080 Descending Chicago Center
03:08PM 43.0144 -88.0331 236° Southwest 278 320 5,200 -2,040 Descending Chicago Center
03:09PM 42.9772 -88.1119 237° Southwest 259 298 2,900 -1,260 Descending Chicago Center
03:10PM 42.9333 -88.1381 204° Southwest 231 266 2,700 -120 Descending Chicago Center
03:11PM 42.8956 -88.1014 145° Southeast 202 232 2,700 -180 Level Chicago Center
03:12PM 42.9153 -88.0222 71° East 197 227 2,400 -540 Descending Chicago Center
03:13PM 42.9244 -87.9772 74° East 161 185 1,700 -540 Descending Chicago Center
03:14PM 42.9369 -87.9272 71° East 145 167 1,300 -420 Descending Chicago Center
03:16PM 42.9469 -87.8971 72° East  Level Estimated
03:23PM 42.9469 -87.8971 72° East  Level Estimated